createdAt,value
2022-12-16T00:00:10.123Z,21.00
2022-12-16T00:01:10.273Z,21.20
2022-12-16T00:02:10.100Z,21.00
2022-12-16T00:03:10.241Z,20.50
2022-12-16T00:04:10.054Z,21.10
2022-12-16T00:05:10.070Z,20.40
2022-12-16T00:06:10.038Z,20.80
2022-12-16T00:07:10.016Z,20.00
2022-12-16T00:08:10.003Z,20.10
2022-12-16T00:09:09.991Z,20.70
2022-12-16T00:10:09.983Z,20.60
2022-12-16T00:11:09.994Z,20.30
2022-12-16T00:12:09.966Z,20.50
2022-12-16T00:13:10.759Z,20.50
2022-12-16T00:14:09.933Z,20.80
2022-12-16T00:15:09.927Z,20.10
2022-12-16T00:16:09.992Z,20.00
2022-12-16T00:17:09.916Z,19.10
2022-12-16T00:18:09.884Z,19.90
2022-12-16T00:19:09.871Z,19.80
2022-12-16T00:20:09.865Z,20.40
2022-12-16T00:21:09.867Z,20.20
2022-12-16T00:22:09.841Z,19.90
2022-12-16T00:23:09.826Z,21.30
2022-12-16T00:24:09.822Z,20.80
2022-12-16T00:25:09.800Z,20.60
2022-12-16T00:26:09.801Z,19.60
2022-12-16T00:27:09.772Z,19.60
2022-12-16T00:28:09.762Z,20.00
2022-12-16T00:29:09.765Z,20.00
2022-12-16T00:30:09.735Z,20.60
2022-12-16T00:31:09.786Z,20.00
2022-12-16T00:32:09.717Z,20.50
2022-12-16T00:33:09.718Z,19.90
2022-12-16T00:34:09.692Z,20.80
2022-12-16T00:35:09.691Z,20.10
2022-12-16T00:36:09.681Z,20.90
2022-12-16T00:37:09.659Z,20.30
2022-12-16T00:38:09.645Z,19.80
2022-12-16T00:39:09.630Z,21.00
2022-12-16T00:40:09.622Z,21.90
2022-12-16T00:41:09.636Z,21.20
2022-12-16T00:42:09.602Z,21.90
2022-12-16T00:43:09.583Z,22.50
2022-12-16T00:44:09.572Z,22.70
2022-12-16T00:45:09.683Z,22.90
2022-12-16T00:46:09.736Z,23.60
2022-12-16T00:47:09.573Z,23.90
2022-12-16T00:48:09.523Z,24.00
2022-12-16T00:49:09.543Z,23.10
2022-12-16T00:50:09.509Z,21.20
2022-12-16T00:51:09.531Z,21.10
2022-12-16T00:52:09.473Z,19.40
2022-12-16T00:53:09.515Z,19.70
2022-12-16T00:54:09.498Z,20.00
2022-12-16T00:55:09.439Z,19.90
2022-12-16T00:56:09.443Z,19.60
2022-12-16T00:57:09.427Z,20.80
2022-12-16T00:58:09.398Z,22.70
2022-12-16T00:59:09.392Z,23.50
2022-12-16T01:00:09.502Z,26.10
2022-12-16T01:01:09.474Z,25.90
2022-12-16T01:02:09.537Z,26.70
2022-12-16T01:03:09.529Z,27.80
2022-12-16T01:04:09.333Z,27.50
2022-12-16T01:05:09.386Z,27.80
2022-12-16T01:06:09.333Z,30.50
2022-12-16T01:07:09.309Z,24.60
2022-12-16T01:08:09.312Z,23.10
2022-12-16T01:09:09.274Z,22.30
2022-12-16T01:10:09.256Z,23.70
2022-12-16T01:11:09.243Z,24.00
2022-12-16T01:12:09.292Z,26.80
2022-12-16T01:13:09.225Z,29.00
2022-12-16T01:14:09.210Z,25.90
2022-12-16T01:15:09.199Z,25.00
2022-12-16T01:16:09.328Z,26.50
2022-12-16T01:17:09.202Z,26.40
2022-12-16T01:18:09.185Z,28.20
2022-12-16T01:19:09.159Z,27.10
2022-12-16T01:20:09.136Z,29.60
2022-12-16T01:21:09.140Z,28.30
2022-12-16T01:22:09.129Z,28.70
2022-12-16T01:23:09.115Z,30.00
2022-12-16T01:24:09.122Z,32.80
2022-12-16T01:25:09.082Z,30.80
2022-12-16T01:26:09.077Z,24.80
2022-12-16T01:27:09.072Z,23.80
2022-12-16T01:28:09.044Z,25.80
2022-12-16T01:29:09.029Z,26.40
2022-12-16T01:30:09.102Z,26.40
2022-12-16T01:31:09.006Z,26.70
2022-12-16T01:32:09.089Z,26.10
2022-12-16T01:33:08.980Z,26.10
2022-12-16T01:34:08.981Z,25.40
2022-12-16T01:35:29.540Z,22.80
2022-12-16T01:36:08.996Z,21.30
2022-12-16T01:37:08.970Z,22.40
2022-12-16T01:38:08.920Z,21.00
2022-12-16T01:39:08.917Z,21.00
2022-12-16T01:40:08.894Z,21.60
2022-12-16T01:41:08.895Z,23.40
2022-12-16T01:42:08.888Z,23.90
2022-12-16T01:43:08.862Z,24.10
2022-12-16T01:44:08.847Z,25.10
2022-12-16T01:45:08.833Z,25.20
2022-12-16T01:46:08.895Z,23.80
2022-12-16T01:47:08.831Z,21.60
2022-12-16T01:48:08.795Z,20.50
2022-12-16T01:49:08.795Z,20.50
2022-12-16T01:50:08.775Z,20.70
2022-12-16T01:51:08.763Z,21.10
2022-12-16T01:52:08.770Z,21.70
2022-12-16T01:53:08.754Z,22.40
2022-12-16T01:54:08.730Z,22.80
2022-12-16T01:55:08.724Z,22.20
2022-12-16T01:56:08.703Z,21.90
2022-12-16T01:57:08.712Z,22.10
2022-12-16T01:58:08.679Z,22.80
2022-12-16T01:59:08.674Z,21.00
2022-12-16T02:00:08.653Z,21.00
2022-12-16T02:01:08.754Z,21.20
2022-12-16T02:02:08.884Z,21.70
2022-12-16T02:03:08.661Z,21.40
2022-12-16T02:04:08.606Z,21.30
2022-12-16T02:05:08.637Z,21.20
2022-12-16T02:06:08.614Z,22.30
2022-12-16T02:07:08.614Z,22.30
2022-12-16T02:08:08.573Z,23.60
2022-12-16T02:09:08.592Z,22.80
2022-12-16T02:10:08.538Z,22.90
2022-12-16T02:11:08.522Z,22.80
2022-12-16T02:12:08.579Z,23.00
2022-12-16T02:13:08.546Z,21.70
2022-12-16T02:14:08.486Z,23.60
2022-12-16T02:15:08.476Z,23.00
2022-12-16T02:16:11.675Z,22.80
2022-12-16T02:17:08.560Z,22.60
2022-12-16T02:18:08.455Z,23.60
2022-12-16T02:19:08.423Z,22.80
2022-12-16T02:20:08.436Z,22.60
2022-12-16T02:21:08.414Z,23.30
2022-12-16T02:22:08.393Z,22.50
2022-12-16T02:23:09.126Z,22.60
2022-12-16T02:24:08.382Z,22.30
2022-12-16T02:25:08.374Z,21.50
2022-12-16T02:26:08.343Z,22.20
2022-12-16T02:27:08.337Z,22.20
2022-12-16T02:28:08.332Z,21.90
2022-12-16T02:29:08.311Z,21.60
2022-12-16T02:30:08.291Z,21.60
2022-12-16T02:31:08.345Z,22.50
2022-12-16T02:32:08.269Z,22.00
2022-12-16T02:33:08.280Z,22.00
2022-12-16T02:34:08.243Z,22.50
2022-12-16T02:35:08.235Z,22.40
2022-12-16T02:36:08.225Z,22.40
2022-12-16T02:37:08.207Z,22.00
2022-12-16T02:38:08.215Z,22.20
2022-12-16T02:39:08.191Z,21.90
2022-12-16T02:40:08.172Z,21.50
2022-12-16T02:41:08.293Z,21.40
2022-12-16T02:42:08.150Z,21.40
2022-12-16T02:43:08.154Z,20.30
2022-12-16T02:44:08.125Z,21.60
2022-12-16T02:45:08.127Z,20.70
2022-12-16T02:46:08.208Z,20.70
2022-12-16T02:47:08.089Z,20.40
2022-12-16T02:48:08.094Z,21.70
2022-12-16T02:49:08.071Z,22.40
2022-12-16T02:50:08.058Z,21.70
2022-12-16T02:51:08.044Z,21.40
2022-12-16T02:52:08.026Z,21.70
2022-12-16T02:53:08.032Z,21.20
2022-12-16T02:54:08.009Z,21.10
2022-12-16T02:55:07.994Z,21.30
2022-12-16T02:56:07.979Z,21.20
2022-12-16T02:57:07.984Z,21.20
2022-12-16T02:58:07.998Z,20.90
2022-12-16T02:59:07.944Z,21.80
2022-12-16T03:00:07.965Z,21.30
2022-12-16T03:01:08.051Z,22.60
2022-12-16T03:02:08.117Z,21.50
2022-12-16T03:03:08.148Z,21.90
2022-12-16T03:06:34.615Z,21.00
2022-12-16T03:07:31.861Z,21.70
2022-12-16T03:08:31.868Z,21.70
2022-12-16T03:09:31.828Z,21.60
2022-12-16T03:10:31.814Z,20.90
2022-12-16T03:11:31.801Z,21.60
2022-12-16T03:12:31.821Z,21.80
2022-12-16T03:13:32.051Z,21.20
2022-12-16T03:14:31.769Z,21.60
2022-12-16T03:15:31.753Z,20.50
2022-12-16T03:16:31.905Z,22.10
2022-12-16T03:17:31.730Z,23.50
2022-12-16T03:18:31.738Z,23.30
2022-12-16T03:19:31.708Z,23.80
2022-12-16T03:20:31.700Z,23.20
2022-12-16T03:21:31.681Z,22.40
2022-12-16T03:22:31.672Z,22.40
2022-12-16T03:23:31.947Z,21.10
2022-12-16T03:24:31.649Z,22.10
2022-12-16T03:25:31.634Z,21.80
2022-12-16T03:26:31.621Z,22.60
2022-12-16T03:27:31.610Z,22.00
2022-12-16T03:28:31.635Z,22.80
2022-12-16T03:29:31.587Z,22.20
2022-12-16T03:30:31.622Z,21.60
2022-12-16T03:31:31.559Z,21.70
2022-12-16T03:32:31.555Z,22.00
2022-12-16T03:33:31.956Z,21.40
2022-12-16T03:34:31.580Z,22.80
2022-12-16T03:35:31.526Z,22.30
2022-12-16T03:36:31.499Z,22.20
2022-12-16T03:37:31.511Z,23.20
2022-12-16T03:38:31.490Z,21.50
2022-12-16T03:39:31.492Z,21.80
2022-12-16T03:40:31.454Z,21.80
2022-12-16T03:41:31.438Z,25.20
2022-12-16T03:42:31.426Z,25.60
2022-12-16T03:43:31.917Z,26.40
2022-12-16T03:44:31.484Z,26.30
2022-12-16T03:45:31.388Z,24.50
2022-12-16T03:46:31.399Z,23.80
2022-12-16T03:47:31.379Z,24.00
2022-12-16T03:48:31.652Z,21.90
2022-12-16T03:49:31.348Z,22.10
2022-12-16T03:50:31.335Z,22.20
2022-12-16T03:51:31.314Z,22.10
2022-12-16T03:52:31.332Z,21.50
2022-12-16T03:53:31.627Z,20.80
2022-12-16T03:54:31.281Z,22.30
2022-12-16T03:55:31.291Z,21.20
2022-12-16T03:56:31.254Z,23.20
2022-12-16T03:57:31.294Z,24.60
2022-12-16T03:58:31.242Z,26.10
2022-12-16T03:59:31.214Z,31.30
2022-12-16T04:00:31.265Z,31.70
2022-12-16T04:01:31.317Z,30.00
2022-12-16T04:02:31.373Z,27.70
2022-12-16T04:03:31.653Z,25.80
2022-12-16T04:04:31.155Z,24.40
2022-12-16T04:05:31.179Z,24.10
2022-12-16T04:06:31.138Z,23.70
2022-12-16T04:07:31.121Z,22.60
2022-12-16T04:08:31.129Z,22.40
2022-12-16T04:09:31.093Z,23.40
2022-12-16T04:10:31.082Z,24.20
2022-12-16T04:11:31.086Z,24.00
2022-12-16T04:12:31.059Z,24.20
2022-12-16T04:13:31.502Z,23.90
2022-12-16T04:14:31.038Z,23.30
2022-12-16T04:15:31.081Z,23.20
2022-12-16T04:16:31.032Z,23.90
2022-12-16T04:17:31.004Z,22.80
2022-12-16T04:18:31.600Z,22.40
2022-12-16T04:19:30.994Z,22.70
2022-12-16T04:20:30.961Z,22.00
2022-12-16T04:21:30.963Z,22.80
2022-12-16T04:22:30.934Z,22.10
2022-12-16T04:23:31.364Z,21.50
2022-12-16T04:24:30.926Z,21.80
2022-12-16T04:25:30.897Z,21.00
2022-12-16T04:26:30.886Z,21.10
2022-12-16T04:27:30.894Z,20.90
2022-12-16T04:28:30.874Z,20.90
2022-12-16T04:29:30.879Z,20.80
2022-12-16T04:30:30.840Z,21.50
2022-12-16T04:31:30.867Z,20.90
2022-12-16T04:32:30.840Z,21.10
2022-12-16T04:33:31.282Z,21.70
2022-12-16T04:34:30.806Z,21.00
2022-12-16T04:35:30.772Z,21.90
2022-12-16T04:36:30.762Z,21.50
2022-12-16T04:37:30.756Z,21.90
2022-12-16T04:38:30.737Z,22.10
2022-12-16T04:39:30.747Z,21.60
2022-12-16T04:40:30.759Z,21.60
2022-12-16T04:41:30.701Z,21.00
2022-12-16T04:42:30.689Z,22.40
2022-12-16T04:43:30.992Z,23.70
2022-12-16T04:44:30.684Z,24.50
2022-12-16T04:45:30.656Z,24.10
2022-12-16T04:46:30.707Z,26.00
2022-12-16T04:47:30.732Z,28.10
2022-12-16T04:48:30.651Z,23.20
2022-12-16T04:49:30.627Z,22.70
2022-12-16T04:50:30.606Z,22.50
2022-12-16T04:51:30.578Z,21.50
2022-12-16T04:52:30.567Z,22.60
2022-12-16T04:53:30.997Z,23.60
2022-12-16T04:54:30.579Z,25.70
2022-12-16T04:55:30.549Z,25.40
2022-12-16T04:56:30.523Z,27.40
2022-12-16T04:57:30.506Z,25.50
2022-12-16T04:58:30.497Z,25.80
2022-12-16T04:59:30.482Z,27.80
2022-12-16T05:00:30.488Z,28.40
2022-12-16T05:01:30.655Z,28.00
2022-12-16T05:02:30.627Z,26.40
2022-12-16T05:03:30.894Z,26.00
2022-12-16T05:04:30.444Z,25.40
2022-12-16T05:05:30.425Z,25.10
2022-12-16T05:06:30.396Z,25.40
2022-12-16T05:07:36.322Z,25.60
2022-12-16T05:08:31.379Z,25.50
2022-12-16T05:09:30.365Z,25.70
2022-12-16T05:10:30.376Z,26.50
2022-12-16T05:11:30.348Z,26.50
2022-12-16T05:12:30.321Z,25.50
2022-12-16T05:13:30.629Z,26.60
2022-12-16T05:14:30.301Z,26.00
2022-12-16T05:15:30.300Z,24.00
2022-12-16T05:16:30.354Z,25.40
2022-12-16T05:17:30.264Z,24.60
2022-12-16T05:18:30.252Z,24.20
2022-12-16T05:19:31.805Z,23.20
2022-12-16T05:20:30.264Z,23.80
2022-12-16T05:21:30.220Z,22.90
2022-12-16T05:22:30.218Z,23.10
2022-12-16T05:23:30.709Z,22.30
2022-12-16T05:24:30.181Z,22.40
2022-12-16T05:25:30.184Z,22.40
2022-12-16T05:26:30.154Z,22.30
2022-12-16T05:27:30.145Z,22.20
2022-12-16T05:28:30.130Z,22.70
2022-12-16T05:29:30.133Z,21.80
2022-12-16T05:30:33.614Z,22.10
2022-12-16T05:31:30.140Z,21.30
2022-12-16T05:32:30.079Z,21.00
2022-12-16T05:33:30.423Z,21.00
2022-12-16T05:34:30.058Z,20.50
2022-12-16T05:35:30.085Z,20.70
2022-12-16T05:36:30.055Z,21.00
2022-12-16T05:37:30.021Z,20.00
2022-12-16T05:38:30.016Z,20.00
2022-12-16T05:39:30.000Z,20.80
2022-12-16T05:40:30.000Z,21.70
2022-12-16T05:41:29.968Z,22.30
2022-12-16T05:42:29.962Z,22.10
2022-12-16T05:43:30.230Z,21.80
2022-12-16T05:44:29.933Z,21.80
2022-12-16T05:45:29.938Z,28.80
2022-12-16T05:46:30.027Z,27.60
2022-12-16T05:47:29.904Z,26.80
2022-12-16T05:48:29.887Z,26.40
2022-12-16T05:49:29.873Z,25.80
2022-12-16T05:50:29.878Z,24.50
2022-12-16T05:51:29.848Z,21.30
2022-12-16T05:52:29.869Z,20.80
2022-12-16T05:53:30.034Z,20.00
2022-12-16T05:54:29.816Z,20.40
2022-12-16T05:55:33.902Z,19.20
2022-12-16T05:56:29.791Z,18.80
2022-12-16T05:57:29.782Z,18.00
2022-12-16T05:58:29.768Z,19.80
2022-12-16T05:59:29.760Z,22.70
2022-12-16T06:00:29.777Z,21.20
2022-12-16T06:01:29.909Z,21.40
2022-12-16T06:02:29.940Z,21.60
2022-12-16T06:03:29.968Z,23.00
2022-12-16T06:04:29.699Z,24.50
2022-12-16T06:05:29.692Z,23.90
2022-12-16T06:06:29.689Z,26.40
2022-12-16T06:07:29.660Z,27.10
2022-12-16T06:08:29.674Z,26.40
2022-12-16T06:09:29.641Z,27.10
2022-12-16T06:10:29.625Z,24.70
2022-12-16T06:11:29.632Z,26.10
2022-12-16T06:12:29.603Z,22.60
2022-12-16T06:13:29.874Z,21.70
2022-12-16T06:14:29.612Z,20.20
2022-12-16T06:15:29.575Z,20.10
2022-12-16T06:16:29.622Z,19.90
2022-12-16T06:17:29.544Z,20.10
2022-12-16T06:18:29.528Z,20.60
2022-12-16T06:19:29.520Z,22.50
2022-12-16T06:20:29.509Z,22.30
2022-12-16T06:21:29.514Z,21.20
2022-12-16T06:22:29.481Z,22.20
2022-12-16T06:23:29.479Z,21.00
2022-12-16T06:24:29.480Z,19.40
2022-12-16T06:25:29.457Z,19.90
2022-12-16T06:26:29.453Z,20.10
2022-12-16T06:27:29.430Z,19.30
2022-12-16T06:28:29.414Z,19.30
2022-12-16T06:29:29.402Z,19.70
2022-12-16T06:30:29.394Z,18.10
2022-12-16T06:31:29.456Z,20.20
2022-12-16T06:32:29.377Z,20.20
2022-12-16T06:33:29.569Z,19.10
2022-12-16T06:34:29.345Z,19.00
2022-12-16T06:35:29.330Z,20.40
2022-12-16T06:36:29.339Z,18.70
2022-12-16T06:37:29.314Z,19.10
2022-12-16T06:38:29.299Z,20.10
2022-12-16T06:39:29.290Z,19.60
2022-12-16T06:40:29.293Z,19.40
2022-12-16T06:41:29.287Z,20.10
2022-12-16T06:42:29.251Z,20.10
2022-12-16T06:43:29.421Z,22.00
2022-12-16T06:44:29.226Z,20.00
2022-12-16T06:45:34.513Z,20.00
2022-12-16T06:46:29.287Z,19.80
2022-12-16T06:47:29.189Z,20.70
2022-12-16T06:48:29.178Z,20.60
2022-12-16T06:49:29.171Z,21.20
2022-12-16T06:50:29.155Z,22.90
2022-12-16T06:51:29.162Z,23.60
2022-12-16T06:52:29.129Z,22.40
2022-12-16T06:53:29.399Z,21.20
2022-12-16T06:54:29.112Z,22.00
2022-12-16T06:55:29.100Z,20.90
2022-12-16T06:56:29.125Z,21.40
2022-12-16T06:57:29.075Z,20.10
2022-12-16T06:58:29.061Z,19.20
2022-12-16T06:59:29.047Z,19.80
2022-12-16T07:00:29.036Z,19.10
2022-12-16T07:01:29.199Z,20.80
2022-12-16T07:02:29.091Z,21.00
2022-12-16T07:03:34.096Z,22.60
2022-12-16T07:04:28.993Z,22.20
2022-12-16T07:05:28.977Z,24.50
2022-12-16T07:06:28.986Z,32.50
2022-12-16T07:07:28.968Z,33.30
2022-12-16T07:08:28.944Z,26.40
2022-12-16T07:09:28.936Z,21.90
2022-12-16T07:10:28.919Z,22.90
2022-12-16T07:11:28.915Z,22.00
2022-12-16T07:12:28.939Z,21.40
2022-12-16T07:13:29.153Z,22.30
2022-12-16T07:14:28.872Z,22.90
2022-12-16T07:15:28.866Z,23.30
2022-12-16T07:16:28.968Z,21.20
2022-12-16T07:17:28.860Z,20.30
2022-12-16T07:18:28.828Z,20.60
2022-12-16T07:19:28.814Z,20.00
2022-12-16T07:20:28.884Z,20.70
2022-12-16T07:21:28.792Z,21.70
2022-12-16T07:22:28.798Z,21.10
2022-12-16T07:23:28.769Z,19.70
2022-12-16T07:24:28.751Z,20.60
2022-12-16T07:25:28.743Z,20.30
2022-12-16T07:26:28.731Z,22.00
2022-12-16T07:27:28.735Z,22.70
2022-12-16T07:28:28.723Z,35.40
2022-12-16T07:29:28.701Z,26.60
2022-12-16T07:30:28.723Z,25.00
2022-12-16T07:31:28.726Z,26.40
2022-12-16T07:32:28.675Z,25.70
2022-12-16T07:33:28.651Z,25.40
2022-12-16T07:34:28.636Z,25.00
2022-12-16T07:35:28.628Z,24.20
2022-12-16T07:36:28.619Z,24.60
2022-12-16T07:37:28.616Z,25.10
2022-12-16T07:38:28.590Z,24.40
2022-12-16T07:39:28.579Z,24.80
2022-12-16T07:40:28.646Z,24.40
2022-12-16T07:41:28.553Z,24.70
2022-12-16T07:42:28.559Z,24.30
2022-12-16T07:43:28.532Z,25.20
2022-12-16T07:44:28.541Z,23.00
2022-12-16T07:45:28.655Z,23.00
2022-12-16T07:46:28.591Z,19.80
2022-12-16T07:47:28.504Z,21.10
2022-12-16T07:48:28.486Z,23.70
2022-12-16T07:49:28.465Z,23.80
2022-12-16T07:50:28.506Z,24.00
2022-12-16T07:51:28.438Z,22.20
2022-12-16T07:52:28.449Z,22.70
2022-12-16T07:53:31.223Z,23.40
2022-12-16T07:54:28.400Z,26.80
2022-12-16T07:55:28.393Z,26.20
2022-12-16T07:56:28.379Z,25.60
2022-12-16T07:57:28.381Z,27.30
2022-12-16T07:58:28.360Z,24.80
2022-12-16T07:59:28.345Z,25.40
2022-12-16T08:00:28.433Z,23.50
2022-12-16T08:01:28.438Z,24.10
2022-12-16T08:02:28.483Z,23.60
2022-12-16T08:03:28.389Z,22.40
2022-12-16T08:04:28.285Z,21.80
2022-12-16T08:05:28.276Z,21.30
2022-12-16T08:06:28.256Z,21.90
2022-12-16T08:07:28.261Z,20.30
2022-12-16T08:08:28.236Z,20.40
2022-12-16T08:09:28.222Z,20.20
2022-12-16T08:10:28.263Z,19.20
2022-12-16T08:11:28.197Z,19.00
2022-12-16T08:12:28.201Z,18.80
2022-12-16T08:13:28.182Z,19.40
2022-12-16T08:14:28.164Z,19.20
2022-12-16T08:15:28.152Z,18.60
2022-12-16T08:16:28.264Z,18.60
2022-12-16T08:17:28.148Z,19.90
2022-12-16T08:18:28.117Z,20.70
2022-12-16T08:19:28.104Z,20.80
2022-12-16T08:20:28.090Z,20.10
2022-12-16T08:21:28.084Z,21.70
2022-12-16T08:22:28.091Z,21.70
2022-12-16T08:23:28.060Z,21.00
2022-12-16T08:24:28.046Z,21.10
2022-12-16T08:25:28.032Z,19.50
2022-12-16T08:26:28.025Z,18.50
2022-12-16T08:27:28.009Z,18.40
2022-12-16T08:28:28.017Z,17.80
2022-12-16T08:29:43.624Z,18.20
2022-12-16T08:30:28.124Z,17.50
2022-12-16T08:31:28.020Z,17.10
2022-12-16T08:32:27.989Z,17.70
2022-12-16T08:33:27.952Z,17.20
2022-12-16T08:34:27.915Z,17.60
2022-12-16T08:35:27.906Z,18.00
2022-12-16T08:36:27.893Z,16.70
2022-12-16T08:37:27.881Z,17.10
2022-12-16T08:38:27.885Z,17.00
2022-12-16T08:39:27.852Z,17.10
2022-12-16T08:40:36.359Z,17.70
2022-12-16T08:41:28.833Z,18.50
2022-12-16T08:42:27.817Z,18.50
2022-12-16T08:43:27.827Z,18.60
2022-12-16T08:44:27.789Z,18.90
2022-12-16T08:45:27.780Z,20.30
2022-12-16T08:46:27.800Z,19.80
2022-12-16T08:47:27.749Z,20.10
2022-12-16T08:48:27.844Z,20.20
2022-12-16T08:49:27.731Z,20.50
2022-12-16T08:50:27.708Z,20.10
2022-12-16T08:51:27.698Z,21.80
2022-12-16T08:52:27.680Z,22.40
2022-12-16T08:53:27.686Z,23.30
2022-12-16T08:54:27.656Z,23.20
2022-12-16T08:55:29.653Z,23.60
2022-12-16T08:56:27.628Z,23.90
2022-12-16T08:57:27.618Z,24.10
2022-12-16T08:58:27.620Z,23.30
2022-12-16T08:59:27.590Z,23.80
2022-12-16T09:00:27.576Z,23.30
2022-12-16T09:01:27.684Z,23.20
2022-12-16T09:02:27.845Z,23.10
2022-12-16T09:03:27.613Z,24.10
2022-12-16T09:04:27.551Z,23.60
2022-12-16T09:05:27.513Z,23.50
2022-12-16T09:06:27.499Z,24.60
2022-12-16T09:07:27.495Z,25.00
2022-12-16T09:08:27.488Z,25.40
2022-12-16T09:09:27.469Z,24.80
2022-12-16T09:10:27.444Z,24.30
2022-12-16T09:11:27.429Z,27.60
2022-12-16T09:12:27.414Z,29.80
2022-12-16T09:13:27.421Z,31.20
2022-12-16T09:14:27.387Z,31.40
2022-12-16T09:15:27.414Z,31.00
2022-12-16T09:16:27.437Z,29.90
2022-12-16T09:17:27.347Z,30.50
2022-12-16T09:18:27.353Z,30.90
2022-12-16T09:19:27.326Z,31.60
2022-12-16T09:20:27.325Z,30.90
2022-12-16T09:21:31.729Z,30.40
2022-12-16T09:22:27.288Z,30.40
2022-12-16T09:23:27.289Z,30.90
2022-12-16T09:24:27.256Z,28.70
2022-12-16T09:25:27.242Z,21.50
2022-12-16T09:26:27.329Z,20.90
2022-12-16T09:27:27.219Z,19.50
2022-12-16T09:28:27.218Z,18.60
2022-12-16T09:29:27.190Z,20.20
2022-12-16T09:30:27.176Z,19.40
2022-12-16T09:31:27.264Z,17.90
2022-12-16T09:32:27.146Z,17.50
2022-12-16T09:33:27.167Z,17.90
2022-12-16T09:34:27.123Z,17.00
2022-12-16T09:35:27.111Z,16.00
2022-12-16T09:36:27.123Z,15.20
2022-12-16T09:37:27.088Z,14.50
2022-12-16T09:38:27.072Z,14.70
2022-12-16T09:39:27.074Z,14.40
2022-12-16T09:40:27.041Z,14.20
2022-12-16T09:41:27.042Z,14.40
2022-12-16T09:42:27.014Z,15.50
2022-12-16T09:43:27.011Z,15.60
2022-12-16T09:44:27.008Z,15.80
2022-12-16T09:45:26.974Z,14.60
2022-12-16T09:46:27.052Z,14.60
2022-12-16T09:47:26.959Z,15.40
2022-12-16T09:48:26.934Z,15.60
2022-12-16T09:49:26.942Z,15.60
2022-12-16T09:50:26.907Z,16.20
2022-12-16T09:51:26.895Z,15.40
2022-12-16T09:52:26.913Z,15.20
2022-12-16T09:53:26.866Z,15.50
2022-12-16T09:54:26.872Z,14.90
2022-12-16T09:55:26.842Z,15.20
2022-12-16T09:56:26.827Z,15.10
2022-12-16T09:57:26.824Z,14.20
2022-12-16T09:58:26.802Z,14.70
2022-12-16T09:59:26.809Z,14.20
2022-12-16T10:00:26.771Z,14.90
2022-12-16T10:01:26.882Z,15.40
2022-12-16T10:02:26.957Z,14.90
2022-12-16T10:03:26.856Z,14.40
2022-12-16T10:04:26.789Z,13.80
2022-12-16T10:05:26.706Z,17.40
2022-12-16T10:06:26.761Z,15.40
2022-12-16T10:07:26.681Z,14.90
2022-12-16T10:08:26.694Z,14.50
2022-12-16T10:09:26.668Z,14.50
2022-12-16T10:10:26.641Z,14.40
2022-12-16T10:11:26.625Z,14.30
2022-12-16T10:12:26.616Z,14.70
2022-12-16T10:13:26.597Z,14.60
2022-12-16T10:14:26.607Z,15.40
2022-12-16T10:15:26.571Z,15.30
2022-12-16T10:16:26.640Z,15.50
2022-12-16T10:17:26.546Z,15.60
2022-12-16T10:18:26.601Z,15.40
2022-12-16T10:19:26.536Z,15.80
2022-12-16T10:20:26.511Z,15.90
2022-12-16T10:21:26.499Z,15.30
2022-12-16T10:22:26.496Z,14.70
2022-12-16T10:23:26.466Z,14.30
2022-12-16T10:24:26.509Z,14.90
2022-12-16T10:25:26.445Z,14.90
2022-12-16T10:26:26.430Z,12.90
2022-12-16T10:27:26.413Z,13.10
2022-12-16T10:28:26.400Z,12.00
2022-12-16T10:29:26.405Z,12.30
2022-12-16T10:30:26.375Z,11.70
2022-12-16T10:31:31.356Z,11.80
2022-12-16T10:32:26.348Z,11.40
2022-12-16T10:33:26.333Z,11.20
2022-12-16T10:34:26.335Z,11.30
2022-12-16T10:35:26.303Z,11.40
2022-12-16T10:36:26.295Z,11.50
2022-12-16T10:37:26.279Z,11.80
2022-12-16T10:38:26.264Z,11.50
2022-12-16T10:39:26.267Z,11.60
2022-12-16T10:40:26.260Z,11.80
2022-12-16T10:41:26.226Z,12.80
2022-12-16T10:42:26.213Z,13.20
2022-12-16T10:43:26.196Z,14.50
2022-12-16T10:44:26.201Z,13.30
2022-12-16T10:45:26.169Z,12.60
2022-12-16T10:46:26.201Z,14.60
2022-12-16T10:47:26.145Z,13.70
2022-12-16T10:48:26.135Z,12.60
2022-12-16T10:49:26.193Z,15.00
2022-12-16T10:50:26.125Z,13.20
2022-12-16T10:51:26.093Z,11.10
2022-12-16T10:52:26.085Z,11.10
2022-12-16T10:53:26.079Z,11.00
2022-12-16T10:54:26.056Z,11.70
2022-12-16T10:55:26.062Z,10.90
2022-12-16T10:56:26.052Z,11.20
2022-12-16T10:57:26.017Z,10.70
2022-12-16T10:58:26.002Z,11.90
2022-12-16T10:59:25.985Z,11.30
2022-12-16T11:00:25.993Z,13.20
2022-12-16T11:01:26.069Z,11.50
2022-12-16T11:02:26.183Z,11.40
2022-12-16T11:03:26.093Z,10.60
2022-12-16T11:04:25.979Z,10.80
2022-12-16T11:05:25.920Z,11.10
2022-12-16T11:06:25.892Z,10.50
2022-12-16T11:07:25.882Z,10.90
2022-12-16T11:08:25.869Z,11.20
2022-12-16T11:09:25.853Z,11.50
2022-12-16T11:10:25.868Z,11.00
2022-12-16T11:11:25.834Z,10.90
2022-12-16T11:12:25.837Z,14.80
2022-12-16T11:13:25.804Z,13.60
2022-12-16T11:14:25.789Z,11.20
2022-12-16T11:15:29.789Z,10.60
2022-12-16T11:16:25.854Z,11.20
2022-12-16T11:17:25.781Z,11.30
2022-12-16T11:18:25.742Z,10.30
2022-12-16T11:19:25.725Z,9.50
2022-12-16T11:20:25.729Z,9.70
2022-12-16T11:21:25.698Z,10.30
2022-12-16T11:22:25.690Z,10.80
2022-12-16T11:23:25.672Z,13.40
2022-12-16T11:24:25.657Z,13.60
2022-12-16T11:25:25.657Z,12.70
2022-12-16T11:26:25.633Z,11.70
2022-12-16T11:27:25.617Z,11.80
2022-12-16T11:28:25.650Z,11.60
2022-12-16T11:29:25.594Z,10.80
2022-12-16T11:30:25.627Z,11.60
2022-12-16T11:31:25.724Z,12.00
2022-12-16T11:32:25.553Z,11.10
2022-12-16T11:33:25.535Z,10.90
2022-12-16T11:34:25.526Z,10.20
2022-12-16T11:35:25.529Z,10.00
2022-12-16T11:36:25.507Z,10.00
2022-12-16T11:37:25.481Z,10.30
2022-12-16T11:38:25.479Z,10.40
2022-12-16T11:39:25.459Z,9.70
2022-12-16T11:40:25.477Z,10.00
2022-12-16T11:41:25.432Z,9.90
2022-12-16T11:42:25.424Z,9.30
2022-12-16T11:43:25.403Z,9.60
2022-12-16T11:44:25.415Z,9.40
2022-12-16T11:45:25.399Z,9.30
2022-12-16T11:46:25.420Z,9.40
2022-12-16T11:47:25.354Z,9.70
2022-12-16T11:48:25.338Z,9.40
2022-12-16T11:49:25.809Z,9.90
2022-12-16T11:50:25.330Z,9.50
2022-12-16T11:51:25.300Z,10.60
2022-12-16T11:52:40.702Z,10.50
2022-12-16T11:53:26.276Z,10.60
2022-12-16T11:54:25.265Z,10.30
2022-12-16T11:55:48.112Z,10.00
2022-12-16T11:56:25.329Z,10.30
2022-12-16T11:57:25.220Z,9.90
2022-12-16T11:58:25.210Z,9.40
2022-12-16T11:59:25.208Z,9.00
2022-12-16T12:00:25.228Z,9.20
2022-12-16T12:01:25.223Z,9.70
2022-12-16T12:02:25.221Z,9.70
2022-12-16T12:03:25.344Z,8.30
2022-12-16T12:04:25.183Z,8.90
2022-12-16T12:05:25.115Z,9.30
2022-12-16T12:06:25.122Z,9.20
2022-12-16T12:07:25.087Z,9.50
2022-12-16T12:08:25.080Z,9.40
2022-12-16T12:09:25.066Z,9.30
2022-12-16T12:10:25.053Z,9.30
2022-12-16T12:11:25.054Z,9.30
2022-12-16T12:12:25.030Z,9.20
2022-12-16T12:13:25.014Z,10.00
2022-12-16T12:14:25.000Z,9.50
2022-12-16T12:15:24.984Z,9.10
2022-12-16T12:16:25.109Z,8.70
2022-12-16T12:17:24.958Z,9.10
2022-12-16T12:18:24.947Z,9.30
2022-12-16T12:19:24.934Z,9.00
2022-12-16T12:20:24.925Z,9.80
2022-12-16T12:21:24.925Z,9.60
2022-12-16T12:22:24.894Z,9.10
2022-12-16T12:23:24.884Z,9.30
2022-12-16T12:24:24.870Z,9.20
2022-12-16T12:25:24.856Z,9.10
2022-12-16T12:26:25.126Z,9.20
2022-12-16T12:27:24.825Z,9.60
2022-12-16T12:28:24.813Z,10.40
2022-12-16T12:29:24.803Z,10.20
2022-12-16T12:30:24.788Z,9.40
2022-12-16T12:31:24.871Z,9.40
2022-12-16T12:32:24.785Z,10.00
2022-12-16T12:33:24.748Z,10.30
2022-12-16T12:34:24.736Z,9.70
2022-12-16T12:35:24.719Z,9.70
2022-12-16T12:36:24.753Z,10.00
2022-12-16T12:37:24.693Z,9.60
2022-12-16T12:38:24.709Z,9.70
2022-12-16T12:39:24.668Z,11.40
2022-12-16T12:40:24.657Z,10.50
2022-12-16T12:41:24.668Z,10.30
2022-12-16T12:42:24.629Z,10.70
2022-12-16T12:43:24.616Z,11.00
2022-12-16T12:44:24.789Z,11.70
2022-12-16T12:45:24.591Z,11.00
2022-12-16T12:46:24.624Z,11.80
2022-12-16T12:47:24.565Z,12.00
2022-12-16T12:48:24.576Z,15.90
2022-12-16T12:49:24.537Z,15.70
2022-12-16T12:50:24.526Z,15.10
2022-12-16T12:51:24.525Z,13.30
2022-12-16T12:52:24.498Z,11.70
2022-12-16T12:53:24.487Z,15.20
2022-12-16T12:54:27.658Z,24.90
2022-12-16T12:55:24.457Z,18.10
2022-12-16T12:56:24.460Z,14.90